createdAt,value
2023-02-20T00:04:16.512Z,2.80
2023-02-20T00:09:19.281Z,2.88
2023-02-20T00:14:23.683Z,2.72
2023-02-20T00:19:26.436Z,2.47
2023-02-20T00:24:29.136Z,3.08
2023-02-20T00:29:34.595Z,3.03
2023-02-20T00:34:37.438Z,2.73
2023-02-20T00:39:40.166Z,2.72
2023-02-20T00:44:44.296Z,2.85
2023-02-20T00:49:47.007Z,2.70
2023-02-20T00:54:50.062Z,2.80
2023-02-20T00:59:55.893Z,2.70
2023-02-20T01:04:58.695Z,2.60
2023-02-20T01:10:01.391Z,3.23
2023-02-20T01:15:07.278Z,2.77
2023-02-20T01:20:10.710Z,2.80
2023-02-20T01:25:13.493Z,2.65
2023-02-20T01:30:17.940Z,3.20
2023-02-20T01:35:20.752Z,2.60
2023-02-20T01:40:24.462Z,2.60
2023-02-20T01:45:33.969Z,2.87
2023-02-20T01:50:41.029Z,2.58
2023-02-20T01:55:45.704Z,2.78
2023-02-20T02:00:50.151Z,3.30
2023-02-20T02:05:55.640Z,2.80
2023-02-20T02:11:01.848Z,2.70
2023-02-20T02:16:10.785Z,3.13
2023-02-20T02:21:42.940Z,2.63
2023-02-20T02:27:03.822Z,2.30
2023-02-20T02:32:23.581Z,2.30
2023-02-20T02:37:31.315Z,2.50
2023-02-20T02:42:42.831Z,2.00
2023-02-20T02:47:50.103Z,2.10
2023-02-20T02:52:55.310Z,2.13
2023-02-20T02:57:58.459Z,2.22
2023-02-20T03:03:07.466Z,2.65
2023-02-20T03:08:22.424Z,2.55
2023-02-20T03:13:44.182Z,2.03
2023-02-20T03:18:47.895Z,2.20
2023-02-20T03:23:55.945Z,2.58
2023-02-20T03:29:00.843Z,2.20
2023-02-20T03:34:25.718Z,2.95
2023-02-20T03:39:51.293Z,3.47
2023-02-20T03:44:54.770Z,3.63
2023-02-20T03:50:16.001Z,3.97
2023-02-20T03:55:21.025Z,3.43
2023-02-20T04:00:27.186Z,4.03
2023-02-20T04:05:35.541Z,4.32
2023-02-20T04:10:45.015Z,3.90
2023-02-20T04:15:47.923Z,3.20
2023-02-20T04:20:54.670Z,3.42
2023-02-20T04:26:07.080Z,3.63
2023-02-20T04:31:13.443Z,4.15
2023-02-20T04:36:16.461Z,3.38
2023-02-20T04:41:21.076Z,3.63
2023-02-20T04:46:24.616Z,3.20
2023-02-20T04:51:27.439Z,3.03
2023-02-20T04:56:31.604Z,3.45
2023-02-20T05:01:34.644Z,3.15
2023-02-20T05:06:42.686Z,4.03
2023-02-20T05:11:47.012Z,4.18
2023-02-20T05:16:51.257Z,3.72
2023-02-20T05:22:11.765Z,4.45
2023-02-20T05:27:17.157Z,4.45
2023-02-20T05:32:20.923Z,4.20
2023-02-20T05:37:25.467Z,4.30
2023-02-20T05:42:29.755Z,4.28
2023-02-20T05:47:32.790Z,4.30
2023-02-20T05:52:35.610Z,3.28
2023-02-20T05:57:39.691Z,4.47
2023-02-20T06:02:42.606Z,3.80
2023-02-20T06:07:45.686Z,3.20
2023-02-20T06:12:49.966Z,3.28
2023-02-20T06:17:52.856Z,3.70
2023-02-20T06:22:57.422Z,3.60
2023-02-20T06:28:01.714Z,3.13
2023-02-20T06:33:04.600Z,3.13
2023-02-20T06:38:07.533Z,3.40
2023-02-20T06:43:11.673Z,3.70
2023-02-20T06:48:15.121Z,3.15
2023-02-20T06:53:17.818Z,3.20
2023-02-20T06:58:22.030Z,2.70
2023-02-20T07:03:24.859Z,3.03
2023-02-20T07:08:27.726Z,3.10
2023-02-20T07:13:31.821Z,3.40
2023-02-20T07:18:34.578Z,3.28
2023-02-20T07:23:37.475Z,3.47
2023-02-20T07:28:41.727Z,3.92
2023-02-20T07:33:44.642Z,3.38
2023-02-20T07:38:55.058Z,3.35
2023-02-20T07:43:59.803Z,3.25
2023-02-20T07:49:03.430Z,2.97
2023-02-20T07:54:06.330Z,3.30
2023-02-20T07:59:11.098Z,3.03
2023-02-20T08:04:13.983Z,3.30
2023-02-20T08:09:16.783Z,2.70
2023-02-20T08:14:20.998Z,3.17
2023-02-20T08:19:23.946Z,2.85
2023-02-20T08:24:26.710Z,3.10
2023-02-20T08:29:30.817Z,2.80
2023-02-20T08:34:33.520Z,2.47
2023-02-20T08:39:36.427Z,2.90
2023-02-20T08:44:41.812Z,2.60
2023-02-20T08:49:44.570Z,2.55
2023-02-20T08:54:49.721Z,2.70
2023-02-20T08:59:54.000Z,2.80
2023-02-20T09:04:57.575Z,2.60
2023-02-20T09:10:00.315Z,2.45
2023-02-20T09:15:05.102Z,2.50
2023-02-20T09:20:09.880Z,1.90
2023-02-20T09:25:13.510Z,2.00
2023-02-20T09:30:21.086Z,1.60
2023-02-20T09:35:26.455Z,1.45
2023-02-20T09:40:30.990Z,1.58
2023-02-20T09:45:36.606Z,1.35
2023-02-20T09:50:43.949Z,1.60
2023-02-20T09:55:46.948Z,1.30
2023-02-20T10:00:51.958Z,1.30
2023-02-20T10:05:56.993Z,1.20
2023-02-20T10:11:04.589Z,1.20
2023-02-20T10:16:18.495Z,1.23
2023-02-20T10:21:35.360Z,1.25
2023-02-20T10:26:42.981Z,1.55
2023-02-20T10:31:51.412Z,1.27
2023-02-20T10:36:56.743Z,1.33
2023-02-20T10:42:01.125Z,1.33
2023-02-20T10:47:08.635Z,0.85
2023-02-20T10:52:29.647Z,0.85
2023-02-20T10:57:38.296Z,0.90
2023-02-20T11:02:45.407Z,1.17
2023-02-20T11:07:49.599Z,1.08
2023-02-20T11:12:53.619Z,1.05
2023-02-20T11:17:59.228Z,1.40
2023-02-20T11:23:02.628Z,0.90
2023-02-20T11:28:11.346Z,0.90
2023-02-20T11:33:18.521Z,0.90
2023-02-20T11:38:30.204Z,0.90
2023-02-20T11:43:34.881Z,0.90
2023-02-20T11:48:40.772Z,1.10
2023-02-20T11:53:44.338Z,0.90
2023-02-20T11:58:47.953Z,0.82
2023-02-20T12:03:58.475Z,0.90
2023-02-20T12:09:02.551Z,0.70
2023-02-20T12:14:12.017Z,0.70
2023-02-20T12:19:19.318Z,0.90
2023-02-20T12:24:36.850Z,0.90
2023-02-20T12:29:44.632Z,0.80
2023-02-20T12:34:59.729Z,0.70
2023-02-20T12:40:14.510Z,0.70
2023-02-20T12:45:26.243Z,0.70
2023-02-20T12:50:43.055Z,0.70
2023-02-20T12:55:53.600Z,0.80
2023-02-20T13:01:00.975Z,0.70
2023-02-20T13:06:06.459Z,0.70
2023-02-20T13:11:14.466Z,0.80
2023-02-20T13:16:21.220Z,0.63
2023-02-20T13:21:27.030Z,0.80
2023-02-20T13:26:48.251Z,0.80
2023-02-20T13:31:52.655Z,0.57
2023-02-20T13:36:57.169Z,0.70
2023-02-20T13:42:04.275Z,0.70
2023-02-20T13:47:34.607Z,0.75
2023-02-20T13:52:40.538Z,0.70
2023-02-20T13:57:47.039Z,0.70
2023-02-20T14:02:49.893Z,0.95
2023-02-20T14:07:54.408Z,0.70
2023-02-20T14:13:00.855Z,0.60
2023-02-20T14:18:03.603Z,1.10
2023-02-20T14:23:20.311Z,1.17
2023-02-20T14:28:23.358Z,0.70
2023-02-20T14:33:30.014Z,1.00
2023-02-20T14:38:43.723Z,1.00
2023-02-20T14:43:47.094Z,1.00
2023-02-20T14:48:50.174Z,1.00
2023-02-20T14:54:00.335Z,1.10
2023-02-20T14:59:17.502Z,0.88
2023-02-20T15:04:20.522Z,0.80
2023-02-20T15:09:24.919Z,0.90
2023-02-20T15:14:29.976Z,1.08
2023-02-20T15:19:35.513Z,0.90
2023-02-20T15:24:41.143Z,1.23
2023-02-20T15:29:45.069Z,0.98
2023-02-20T15:34:52.612Z,1.05
2023-02-20T15:39:57.176Z,0.88
2023-02-20T15:44:59.897Z,1.48
2023-02-20T15:50:02.944Z,1.02
2023-02-20T15:55:07.816Z,1.25
2023-02-20T16:00:19.145Z,0.90
2023-02-20T16:05:26.102Z,1.00
2023-02-20T16:10:30.259Z,1.02
2023-02-20T16:15:33.322Z,1.10
2023-02-20T16:20:36.283Z,1.27
2023-02-20T16:25:41.307Z,1.30
2023-02-20T16:30:46.103Z,1.20
2023-02-20T16:35:55.268Z,1.40
2023-02-20T16:41:03.321Z,1.25
2023-02-20T16:46:06.866Z,1.20
2023-02-20T16:51:11.430Z,1.25
2023-02-20T16:56:16.457Z,1.27
2023-02-20T17:01:19.726Z,1.33
2023-02-20T17:06:23.361Z,1.13
2023-02-20T17:11:27.717Z,1.40
2023-02-20T17:16:31.732Z,3.22
2023-02-20T17:21:34.817Z,3.03
2023-02-20T17:26:38.897Z,1.63
2023-02-20T17:31:41.765Z,1.50
2023-02-20T17:36:49.056Z,1.30
2023-02-20T17:41:55.640Z,1.40
2023-02-20T17:46:59.797Z,1.42
2023-02-20T17:52:02.639Z,1.40
2023-02-20T17:57:06.827Z,1.10
2023-02-20T18:02:10.741Z,1.02
2023-02-20T18:07:14.523Z,1.40
2023-02-20T18:12:18.792Z,1.35
2023-02-20T18:17:21.686Z,1.42
2023-02-20T18:22:24.458Z,1.73
2023-02-20T18:27:28.614Z,1.92
2023-02-20T18:32:31.500Z,2.05
2023-02-20T18:37:34.383Z,2.10
2023-02-20T18:42:38.644Z,2.33
2023-02-20T18:47:41.366Z,2.13
2023-02-20T18:52:46.462Z,2.50
2023-02-20T18:57:51.277Z,2.83
2023-02-20T19:02:55.679Z,2.80
2023-02-20T19:07:58.974Z,2.88
2023-02-20T19:13:03.886Z,3.10
2023-02-20T19:18:06.732Z,3.45
2023-02-20T19:23:09.452Z,3.40
2023-02-20T19:28:13.616Z,3.70
2023-02-20T19:33:16.309Z,2.92
2023-02-20T19:38:19.138Z,3.00
2023-02-20T19:43:23.483Z,3.33
2023-02-20T19:48:28.165Z,3.22
2023-02-20T19:53:31.172Z,2.80
2023-02-20T19:58:36.588Z,3.50
2023-02-20T20:03:39.304Z,3.20
2023-02-20T20:09:01.857Z,3.38
2023-02-20T20:14:06.341Z,4.07
2023-02-20T20:19:09.917Z,3.25
2023-02-20T20:24:12.993Z,3.60
2023-02-20T20:29:17.063Z,3.95
2023-02-20T20:34:20.550Z,3.50
2023-02-20T20:39:23.482Z,2.90
2023-02-20T20:44:27.632Z,2.83
2023-02-20T20:49:30.410Z,2.38
2023-02-20T20:54:33.327Z,2.67
2023-02-20T20:59:37.907Z,2.30
2023-02-20T21:04:41.815Z,2.78
2023-02-20T21:09:44.707Z,2.28
2023-02-20T21:14:48.906Z,2.70
2023-02-20T21:19:51.674Z,2.92
2023-02-20T21:24:54.475Z,1.90
2023-02-20T21:29:58.646Z,2.30
2023-02-20T21:35:01.405Z,2.20
2023-02-20T21:40:04.548Z,2.72
2023-02-20T21:45:09.209Z,2.00
2023-02-20T21:50:14.132Z,1.70
2023-02-20T21:55:18.255Z,1.50
2023-02-20T22:00:21.344Z,1.60
2023-02-20T22:05:22.995Z,1.60
2023-02-20T22:10:43.684Z,2.15
2023-02-20T22:16:05.062Z,2.10
2023-02-20T22:21:25.116Z,1.77
2023-02-20T22:26:45.298Z,1.50
2023-02-20T22:32:06.872Z,1.63
2023-02-20T22:37:27.315Z,1.20
2023-02-20T22:42:47.536Z,1.23
2023-02-20T22:48:09.028Z,1.48
2023-02-20T22:53:29.146Z,1.45
2023-02-20T22:58:49.365Z,1.45
2023-02-20T23:04:10.763Z,1.60
2023-02-20T23:09:31.173Z,1.67
2023-02-20T23:14:51.589Z,1.70
2023-02-20T23:20:13.487Z,1.75
2023-02-20T23:25:33.838Z,1.92
2023-02-20T23:30:54.112Z,2.15
2023-02-20T23:36:15.667Z,2.17
2023-02-20T23:41:35.912Z,2.47
2023-02-20T23:47:02.744Z,2.22
2023-02-20T23:52:24.282Z,1.83
2023-02-20T23:57:44.414Z,2.17
